sensor_id;sensor_type;location;lat;lon;timestamp;temperature;humidity
2893;DHT22;1456;51.840;12.184;2024-02-15T00:01:42;9.70;99.90
2893;DHT22;1456;51.840;12.184;2024-02-15T00:04:08;9.80;99.90
2893;DHT22;1456;51.840;12.184;2024-02-15T00:06:34;9.80;99.90
2893;DHT22;1456;51.840;12.184;2024-02-15T00:09:00;9.70;99.90
2893;DHT22;1456;51.840;12.184;2024-02-15T00:11:26;9.80;99.90
2893;DHT22;1456;51.840;12.184;2024-02-15T00:13:51;9.80;99.90
2893;DHT22;1456;51.840;12.184;2024-02-15T00:16:17;9.80;99.90
2893;DHT22;1456;51.840;12.184;2024-02-15T00:18:43;9.80;99.90
2893;DHT22;1456;51.840;12.184;2024-02-15T00:21:10;9.80;99.90
2893;DHT22;1456;51.840;12.184;2024-02-15T00:23:41;9.70;99.90
2893;DHT22;1456;51.840;12.184;2024-02-15T00:26:06;9.70;99.90
2893;DHT22;1456;51.840;12.184;2024-02-15T00:28:32;9.70;99.90
2893;DHT22;1456;51.840;12.184;2024-02-15T00:30:59;9.80;99.90
2893;DHT22;1456;51.840;12.184;2024-02-15T00:33:28;9.80;99.90
2893;DHT22;1456;51.840;12.184;2024-02-15T00:35:54;9.70;99.90
2893;DHT22;1456;51.840;12.184;2024-02-15T00:38:22;9.70;99.90
2893;DHT22;1456;51.840;12.184;2024-02-15T00:40:48;9.70;99.90
2893;DHT22;1456;51.840;12.184;2024-02-15T00:43:13;9.70;99.90
2893;DHT22;1456;51.840;12.184;2024-02-15T00:45:40;9.80;99.90
2893;DHT22;1456;51.840;12.184;2024-02-15T00:48:06;9.80;99.90
2893;DHT22;1456;51.840;12.184;2024-02-15T00:50:32;9.80;99.90
2893;DHT22;1456;51.840;12.184;2024-02-15T00:52:58;9.80;99.90
2893;DHT22;1456;51.840;12.184;2024-02-15T00:55:23;9.80;99.90
2893;DHT22;1456;51.840;12.184;2024-02-15T00:57:49;9.80;99.90
2893;DHT22;1456;51.840;12.184;2024-02-15T01:00:15;9.90;99.90
2893;DHT22;1456;51.840;12.184;2024-02-15T01:02:40;9.90;99.90
2893;DHT22;1456;51.840;12.184;2024-02-15T01:05:06;9.90;99.90
2893;DHT22;1456;51.840;12.184;2024-02-15T01:07:32;9.90;99.90
2893;DHT22;1456;51.840;12.184;2024-02-15T01:09:58;9.90;99.90
2893;DHT22;1456;51.840;12.184;2024-02-15T01:12:24;10.00;99.90
2893;DHT22;1456;51.840;12.184;2024-02-15T01:14:52;10.00;99.90
2893;DHT22;1456;51.840;12.184;2024-02-15T01:17:18;10.00;99.90
2893;DHT22;1456;51.840;12.184;2024-02-15T01:19:43;10.00;99.90
2893;DHT22;1456;51.840;12.184;2024-02-15T01:22:12;10.00;99.90
2893;DHT22;1456;51.840;12.184;2024-02-15T01:24:38;10.00;99.90
2893;DHT22;1456;51.840;12.184;2024-02-15T01:27:03;10.10;99.90
2893;DHT22;1456;51.840;12.184;2024-02-15T01:29:29;10.10;99.90
2893;DHT22;1456;51.840;12.184;2024-02-15T01:31:57;10.10;99.90
2893;DHT22;1456;51.840;12.184;2024-02-15T01:34:25;10.10;99.90
2893;DHT22;1456;51.840;12.184;2024-02-15T01:36:51;10.10;99.90
2893;DHT22;1456;51.840;12.184;2024-02-15T01:39:16;10.10;99.90
2893;DHT22;1456;51.840;12.184;2024-02-15T01:41:47;10.10;99.90
2893;DHT22;1456;51.840;12.184;2024-02-15T01:44:13;10.20;99.90
2893;DHT22;1456;51.840;12.184;2024-02-15T01:46:39;10.20;99.90
2893;DHT22;1456;51.840;12.184;2024-02-15T01:49:05;10.30;99.90
2893;DHT22;1456;51.840;12.184;2024-02-15T01:51:33;10.30;99.90
2893;DHT22;1456;51.840;12.184;2024-02-15T01:54:02;10.30;99.90
2893;DHT22;1456;51.840;12.184;2024-02-15T01:56:29;10.30;99.90
2893;DHT22;1456;51.840;12.184;2024-02-15T01:58:57;10.30;99.90
2893;DHT22;1456;51.840;12.184;2024-02-15T02:01:22;10.40;99.90
2893;DHT22;1456;51.840;12.184;2024-02-15T02:03:48;10.30;99.90
2893;DHT22;1456;51.840;12.184;2024-02-15T02:06:16;10.30;99.90
2893;DHT22;1456;51.840;12.184;2024-02-15T02:08:42;10.30;99.90
2893;DHT22;1456;51.840;12.184;2024-02-15T02:11:08;10.20;99.90
2893;DHT22;1456;51.840;12.184;2024-02-15T02:13:33;10.30;99.90
2893;DHT22;1456;51.840;12.184;2024-02-15T02:16:00;10.20;99.90
2893;DHT22;1456;51.840;12.184;2024-02-15T02:18:26;10.20;99.90
2893;DHT22;1456;51.840;12.184;2024-02-15T02:20:51;10.30;99.90
2893;DHT22;1456;51.840;12.184;2024-02-15T02:23:17;10.20;99.90
2893;DHT22;1456;51.840;12.184;2024-02-15T02:25:45;10.20;99.90
2893;DHT22;1456;51.840;12.184;2024-02-15T02:28:14;10.20;99.90
2893;DHT22;1456;51.840;12.184;2024-02-15T02:30:41;10.20;99.90
2893;DHT22;1456;51.840;12.184;2024-02-15T02:33:11;10.20;99.90
2893;DHT22;1456;51.840;12.184;2024-02-15T02:35:36;10.20;99.90
2893;DHT22;1456;51.840;12.184;2024-02-15T02:38:02;10.20;99.90
2893;DHT22;1456;51.840;12.184;2024-02-15T02:40:28;10.20;99.90
2893;DHT22;1456;51.840;12.184;2024-02-15T02:42:56;10.20;99.90
2893;DHT22;1456;51.840;12.184;2024-02-15T02:45:22;10.20;99.90
2893;DHT22;1456;51.840;12.184;2024-02-15T02:47:54;10.20;99.90
2893;DHT22;1456;51.840;12.184;2024-02-15T02:50:23;10.20;99.90
2893;DHT22;1456;51.840;12.184;2024-02-15T02:52:50;10.20;99.90
2893;DHT22;1456;51.840;12.184;2024-02-15T02:55:16;10.20;99.90
2893;DHT22;1456;51.840;12.184;2024-02-15T02:57:41;10.20;99.90
2893;DHT22;1456;51.840;12.184;2024-02-15T03:00:10;10.20;99.90
2893;DHT22;1456;51.840;12.184;2024-02-15T03:02:45;10.20;99.90
2893;DHT22;1456;51.840;12.184;2024-02-15T03:05:11;10.30;99.90
2893;DHT22;1456;51.840;12.184;2024-02-15T03:07:37;10.30;99.90
2893;DHT22;1456;51.840;12.184;2024-02-15T03:10:04;10.30;99.90
2893;DHT22;1456;51.840;12.184;2024-02-15T03:12:31;10.30;99.90
2893;DHT22;1456;51.840;12.184;2024-02-15T03:14:56;10.30;99.90
2893;DHT22;1456;51.840;12.184;2024-02-15T03:17:25;10.40;99.90
2893;DHT22;1456;51.840;12.184;2024-02-15T03:19:51;10.40;99.90
2893;DHT22;1456;51.840;12.184;2024-02-15T03:22:17;10.40;99.90
2893;DHT22;1456;51.840;12.184;2024-02-15T03:24:42;10.50;99.90
2893;DHT22;1456;51.840;12.184;2024-02-15T03:27:08;10.50;99.90
2893;DHT22;1456;51.840;12.184;2024-02-15T03:29:38;10.60;99.90
2893;DHT22;1456;51.840;12.184;2024-02-15T03:32:04;10.60;99.90
2893;DHT22;1456;51.840;12.184;2024-02-15T03:34:32;10.60;99.90
2893;DHT22;1456;51.840;12.184;2024-02-15T03:36:58;10.60;99.90
2893;DHT22;1456;51.840;12.184;2024-02-15T03:39:26;10.60;99.90
2893;DHT22;1456;51.840;12.184;2024-02-15T03:41:52;10.60;99.90
2893;DHT22;1456;51.840;12.184;2024-02-15T03:44:19;10.60;99.90
2893;DHT22;1456;51.840;12.184;2024-02-15T03:46:45;10.60;99.90
2893;DHT22;1456;51.840;12.184;2024-02-15T03:49:18;10.60;99.90
2893;DHT22;1456;51.840;12.184;2024-02-15T03:51:43;10.70;99.90
2893;DHT22;1456;51.840;12.184;2024-02-15T03:54:10;10.60;99.90
2893;DHT22;1456;51.840;12.184;2024-02-15T03:56:36;10.60;99.90
2893;DHT22;1456;51.840;12.184;2024-02-15T03:59:02;10.50;99.90
2893;DHT22;1456;51.840;12.184;2024-02-15T04:01:30;10.50;99.90
2893;DHT22;1456;51.840;12.184;2024-02-15T04:03:59;10.50;99.90
2893;DHT22;1456;51.840;12.184;2024-02-15T04:06:25;10.40;99.90
2893;DHT22;1456;51.840;12.184;2024-02-15T04:08:53;10.40;99.90
2893;DHT22;1456;51.840;12.184;2024-02-15T04:11:18;10.40;99.90
2893;DHT22;1456;51.840;12.184;2024-02-15T04:13:45;10.40;99.90
2893;DHT22;1456;51.840;12.184;2024-02-15T04:16:10;10.40;99.90
2893;DHT22;1456;51.840;12.184;2024-02-15T04:18:36;10.40;99.90
2893;DHT22;1456;51.840;12.184;2024-02-15T04:21:03;10.40;99.90
2893;DHT22;1456;51.840;12.184;2024-02-15T04:23:31;10.40;99.90
2893;DHT22;1456;51.840;12.184;2024-02-15T04:25:57;10.40;99.90
2893;DHT22;1456;51.840;12.184;2024-02-15T04:28:25;10.40;99.90
2893;DHT22;1456;51.840;12.184;2024-02-15T04:30:50;10.40;99.90
2893;DHT22;1456;51.840;12.184;2024-02-15T04:33:16;10.40;99.90
2893;DHT22;1456;51.840;12.184;2024-02-15T04:35:42;10.40;99.90
2893;DHT22;1456;51.840;12.184;2024-02-15T04:38:08;10.50;99.90
2893;DHT22;1456;51.840;12.184;2024-02-15T04:40:34;10.50;99.90
2893;DHT22;1456;51.840;12.184;2024-02-15T04:43:00;10.50;99.90
2893;DHT22;1456;51.840;12.184;2024-02-15T04:45:29;10.40;99.90
2893;DHT22;1456;51.840;12.184;2024-02-15T04:47:56;10.50;99.90
2893;DHT22;1456;51.840;12.184;2024-02-15T04:50:22;10.50;99.90
2893;DHT22;1456;51.840;12.184;2024-02-15T04:52:48;10.50;99.90
2893;DHT22;1456;51.840;12.184;2024-02-15T04:55:15;10.50;99.90
2893;DHT22;1456;51.840;12.184;2024-02-15T04:57:41;10.50;99.90
2893;DHT22;1456;51.840;12.184;2024-02-15T05:00:07;10.60;99.90
2893;DHT22;1456;51.840;12.184;2024-02-15T05:02:37;10.60;99.90
2893;DHT22;1456;51.840;12.184;2024-02-15T05:05:09;10.60;99.90
2893;DHT22;1456;51.840;12.184;2024-02-15T05:07:35;10.60;99.90
2893;DHT22;1456;51.840;12.184;2024-02-15T05:10:03;10.60;99.90
2893;DHT22;1456;51.840;12.184;2024-02-15T05:12:32;10.50;99.90
2893;DHT22;1456;51.840;12.184;2024-02-15T05:14:59;10.50;99.90
2893;DHT22;1456;51.840;12.184;2024-02-15T05:17:24;10.50;99.90
2893;DHT22;1456;51.840;12.184;2024-02-15T05:19:50;10.50;99.90
2893;DHT22;1456;51.840;12.184;2024-02-15T05:22:16;10.50;99.90
2893;DHT22;1456;51.840;12.184;2024-02-15T05:24:41;10.40;99.90
2893;DHT22;1456;51.840;12.184;2024-02-15T05:27:07;10.40;99.90
2893;DHT22;1456;51.840;12.184;2024-02-15T05:29:32;10.50;99.90
2893;DHT22;1456;51.840;12.184;2024-02-15T05:32:00;10.50;99.90
2893;DHT22;1456;51.840;12.184;2024-02-15T05:34:27;10.50;99.90
2893;DHT22;1456;51.840;12.184;2024-02-15T05:36:54;10.60;99.90
2893;DHT22;1456;51.840;12.184;2024-02-15T05:39:20;10.60;99.90
2893;DHT22;1456;51.840;12.184;2024-02-15T05:41:47;10.70;99.90
2893;DHT22;1456;51.840;12.184;2024-02-15T05:44:13;10.70;99.90
2893;DHT22;1456;51.840;12.184;2024-02-15T05:46:44;10.70;99.90
2893;DHT22;1456;51.840;12.184;2024-02-15T05:49:10;10.60;99.90
2893;DHT22;1456;51.840;12.184;2024-02-15T05:51:41;10.60;99.90
2893;DHT22;1456;51.840;12.184;2024-02-15T05:54:06;10.60;99.90
2893;DHT22;1456;51.840;12.184;2024-02-15T05:56:32;10.60;99.90
2893;DHT22;1456;51.840;12.184;2024-02-15T05:58:58;10.60;99.90
2893;DHT22;1456;51.840;12.184;2024-02-15T06:01:23;10.70;99.90
2893;DHT22;1456;51.840;12.184;2024-02-15T06:03:49;10.70;99.90
2893;DHT22;1456;51.840;12.184;2024-02-15T06:06:16;10.70;99.90
2893;DHT22;1456;51.840;12.184;2024-02-15T06:08:41;10.70;99.90
2893;DHT22;1456;51.840;12.184;2024-02-15T06:11:07;10.80;99.90
2893;DHT22;1456;51.840;12.184;2024-02-15T06:13:34;10.80;99.90
2893;DHT22;1456;51.840;12.184;2024-02-15T06:16:00;10.90;99.90
2893;DHT22;1456;51.840;12.184;2024-02-15T06:18:28;10.90;99.90
2893;DHT22;1456;51.840;12.184;2024-02-15T06:20:57;10.90;99.90
2893;DHT22;1456;51.840;12.184;2024-02-15T06:23:25;10.90;99.90
2893;DHT22;1456;51.840;12.184;2024-02-15T06:25:53;10.90;99.90
2893;DHT22;1456;51.840;12.184;2024-02-15T06:28:20;11.00;99.90
2893;DHT22;1456;51.840;12.184;2024-02-15T06:31:04;10.90;99.90
2893;DHT22;1456;51.840;12.184;2024-02-15T06:33:49;10.80;99.90
2893;DHT22;1456;51.840;12.184;2024-02-15T06:36:33;10.70;99.90
2893;DHT22;1456;51.840;12.184;2024-02-15T06:39:17;10.70;99.90
2893;DHT22;1456;51.840;12.184;2024-02-15T06:42:01;10.70;99.90
2893;DHT22;1456;51.840;12.184;2024-02-15T06:44:27;10.70;99.90
2893;DHT22;1456;51.840;12.184;2024-02-15T06:46:53;10.60;99.90
2893;DHT22;1456;51.840;12.184;2024-02-15T06:49:19;10.60;99.90
2893;DHT22;1456;51.840;12.184;2024-02-15T06:51:47;10.50;99.90
2893;DHT22;1456;51.840;12.184;2024-02-15T06:54:13;10.50;99.90
2893;DHT22;1456;51.840;12.184;2024-02-15T06:56:39;10.50;99.90
2893;DHT22;1456;51.840;12.184;2024-02-15T06:59:05;10.50;99.90
2893;DHT22;1456;51.840;12.184;2024-02-15T07:01:31;10.50;99.90
2893;DHT22;1456;51.840;12.184;2024-02-15T07:03:59;10.50;99.90
2893;DHT22;1456;51.840;12.184;2024-02-15T07:06:25;10.60;99.90
2893;DHT22;1456;51.840;12.184;2024-02-15T07:08:52;10.60;99.90
2893;DHT22;1456;51.840;12.184;2024-02-15T07:11:20;10.70;99.90
2893;DHT22;1456;51.840;12.184;2024-02-15T07:13:47;10.80;99.90
2893;DHT22;1456;51.840;12.184;2024-02-15T07:16:12;10.80;99.90
2893;DHT22;1456;51.840;12.184;2024-02-15T07:18:40;10.90;99.90
2893;DHT22;1456;51.840;12.184;2024-02-15T07:21:06;11.00;99.90
2893;DHT22;1456;51.840;12.184;2024-02-15T07:23:36;11.00;99.90
2893;DHT22;1456;51.840;12.184;2024-02-15T07:26:02;11.10;99.90
2893;DHT22;1456;51.840;12.184;2024-02-15T07:28:29;11.10;99.90
2893;DHT22;1456;51.840;12.184;2024-02-15T07:30:56;11.10;99.90
2893;DHT22;1456;51.840;12.184;2024-02-15T07:33:22;11.20;99.90
2893;DHT22;1456;51.840;12.184;2024-02-15T07:35:48;11.20;99.90
2893;DHT22;1456;51.840;12.184;2024-02-15T07:38:19;11.30;99.90
2893;DHT22;1456;51.840;12.184;2024-02-15T07:40:45;11.30;99.90
2893;DHT22;1456;51.840;12.184;2024-02-15T07:43:10;11.40;99.90
2893;DHT22;1456;51.840;12.184;2024-02-15T07:45:36;11.50;99.90
2893;DHT22;1456;51.840;12.184;2024-02-15T07:48:06;11.60;99.90
2893;DHT22;1456;51.840;12.184;2024-02-15T07:50:31;11.80;99.90
2893;DHT22;1456;51.840;12.184;2024-02-15T07:52:57;11.90;99.90
2893;DHT22;1456;51.840;12.184;2024-02-15T07:55:24;12.00;99.90
2893;DHT22;1456;51.840;12.184;2024-02-15T07:57:50;12.00;99.90
2893;DHT22;1456;51.840;12.184;2024-02-15T08:00:17;12.10;99.90
2893;DHT22;1456;51.840;12.184;2024-02-15T08:02:43;12.20;99.90
2893;DHT22;1456;51.840;12.184;2024-02-15T08:05:12;12.30;99.90
2893;DHT22;1456;51.840;12.184;2024-02-15T08:07:44;12.30;99.90
2893;DHT22;1456;51.840;12.184;2024-02-15T08:10:11;12.40;99.90
2893;DHT22;1456;51.840;12.184;2024-02-15T08:12:44;12.60;99.90
2893;DHT22;1456;51.840;12.184;2024-02-15T08:15:10;12.60;99.90
2893;DHT22;1456;51.840;12.184;2024-02-15T08:17:40;12.70;99.90
2893;DHT22;1456;51.840;12.184;2024-02-15T08:20:09;12.80;99.90
2893;DHT22;1456;51.840;12.184;2024-02-15T08:22:35;12.80;99.90
2893;DHT22;1456;51.840;12.184;2024-02-15T08:25:09;12.80;99.90
2893;DHT22;1456;51.840;12.184;2024-02-15T08:27:47;12.80;99.90
2893;DHT22;1456;51.840;12.184;2024-02-15T08:30:15;12.80;99.90
2893;DHT22;1456;51.840;12.184;2024-02-15T08:32:42;12.80;99.90
2893;DHT22;1456;51.840;12.184;2024-02-15T08:35:10;12.80;99.90
2893;DHT22;1456;51.840;12.184;2024-02-15T08:37:36;12.80;99.90
2893;DHT22;1456;51.840;12.184;2024-02-15T08:40:08;12.90;99.90
2893;DHT22;1456;51.840;12.184;2024-02-15T08:42:42;13.10;99.90
2893;DHT22;1456;51.840;12.184;2024-02-15T08:45:08;13.10;99.90
2893;DHT22;1456;51.840;12.184;2024-02-15T08:47:42;13.30;99.90
2893;DHT22;1456;51.840;12.184;2024-02-15T08:50:09;13.50;99.90
2893;DHT22;1456;51.840;12.184;2024-02-15T08:52:39;13.50;99.90
2893;DHT22;1456;51.840;12.184;2024-02-15T08:55:09;13.70;99.90
2893;DHT22;1456;51.840;12.184;2024-02-15T08:57:35;13.80;99.90
2893;DHT22;1456;51.840;12.184;2024-02-15T09:00:03;13.80;99.90
2893;DHT22;1456;51.840;12.184;2024-02-15T09:02:47;13.80;99.90
2893;DHT22;1456;51.840;12.184;2024-02-15T09:05:14;14.00;99.90
2893;DHT22;1456;51.840;12.184;2024-02-15T09:07:46;14.20;99.90
2893;DHT22;1456;51.840;12.184;2024-02-15T09:10:16;14.20;99.90
2893;DHT22;1456;51.840;12.184;2024-02-15T09:12:48;14.30;99.90
2893;DHT22;1456;51.840;12.184;2024-02-15T09:15:14;14.20;99.90
2893;DHT22;1456;51.840;12.184;2024-02-15T09:17:40;14.50;99.90
2893;DHT22;1456;51.840;12.184;2024-02-15T09:20:08;14.60;99.90
2893;DHT22;1456;51.840;12.184;2024-02-15T09:22:34;14.80;99.90
2893;DHT22;1456;51.840;12.184;2024-02-15T09:25:02;15.00;99.90
2893;DHT22;1456;51.840;12.184;2024-02-15T09:27:28;15.20;99.90
2893;DHT22;1456;51.840;12.184;2024-02-15T09:29:53;15.20;99.90
2893;DHT22;1456;51.840;12.184;2024-02-15T09:32:21;15.20;99.90
2893;DHT22;1456;51.840;12.184;2024-02-15T09:34:48;15.10;99.90
2893;DHT22;1456;51.840;12.184;2024-02-15T09:37:13;15.20;99.90
2893;DHT22;1456;51.840;12.184;2024-02-15T09:39:39;15.20;99.90
2893;DHT22;1456;51.840;12.184;2024-02-15T09:42:05;15.10;99.90
2893;DHT22;1456;51.840;12.184;2024-02-15T09:44:30;15.20;99.90
2893;DHT22;1456;51.840;12.184;2024-02-15T09:47:06;15.30;99.90
2893;DHT22;1456;51.840;12.184;2024-02-15T09:49:38;15.40;99.90
2893;DHT22;1456;51.840;12.184;2024-02-15T09:52:08;15.70;99.90
2893;DHT22;1456;51.840;12.184;2024-02-15T09:54:44;15.60;99.90
2893;DHT22;1456;51.840;12.184;2024-02-15T09:57:11;15.70;99.90
2893;DHT22;1456;51.840;12.184;2024-02-15T09:59:38;15.70;99.90
2893;DHT22;1456;51.840;12.184;2024-02-15T10:02:04;15.80;99.90
2893;DHT22;1456;51.840;12.184;2024-02-15T10:04:34;15.70;99.90
2893;DHT22;1456;51.840;12.184;2024-02-15T10:07:00;15.70;99.90
2893;DHT22;1456;51.840;12.184;2024-02-15T10:09:30;15.70;99.90
2893;DHT22;1456;51.840;12.184;2024-02-15T10:12:00;15.70;99.90
2893;DHT22;1456;51.840;12.184;2024-02-15T10:14:28;15.90;99.90
2893;DHT22;1456;51.840;12.184;2024-02-15T10:16:54;16.20;99.90
2893;DHT22;1456;51.840;12.184;2024-02-15T10:19:20;16.30;99.90
2893;DHT22;1456;51.840;12.184;2024-02-15T10:21:52;16.40;99.90
2893;DHT22;1456;51.840;12.184;2024-02-15T10:24:22;16.30;99.90
2893;DHT22;1456;51.840;12.184;2024-02-15T10:27:01;16.30;99.90
2893;DHT22;1456;51.840;12.184;2024-02-15T10:29:30;16.10;99.90
2893;DHT22;1456;51.840;12.184;2024-02-15T10:31:57;15.90;99.90
2893;DHT22;1456;51.840;12.184;2024-02-15T10:34:24;15.70;99.90
2893;DHT22;1456;51.840;12.184;2024-02-15T10:36:56;15.50;99.90
2893;DHT22;1456;51.840;12.184;2024-02-15T10:39:35;15.40;99.90
2893;DHT22;1456;51.840;12.184;2024-02-15T10:42:01;15.50;99.90
2893;DHT22;1456;51.840;12.184;2024-02-15T10:44:27;15.70;99.90
2893;DHT22;1456;51.840;12.184;2024-02-15T10:46:53;15.60;99.90
2893;DHT22;1456;51.840;12.184;2024-02-15T10:49:21;15.70;99.90
2893;DHT22;1456;51.840;12.184;2024-02-15T10:51:57;15.70;99.90
2893;DHT22;1456;51.840;12.184;2024-02-15T10:54:42;15.80;99.90
2893;DHT22;1456;51.840;12.184;2024-02-15T10:57:10;15.80;99.90
2893;DHT22;1456;51.840;12.184;2024-02-15T10:59:38;15.80;99.90
2893;DHT22;1456;51.840;12.184;2024-02-15T11:02:36;15.70;99.90
2893;DHT22;1456;51.840;12.184;2024-02-15T11:05:07;15.70;99.90
2893;DHT22;1456;51.840;12.184;2024-02-15T11:07:37;15.60;99.90
2893;DHT22;1456;51.840;12.184;2024-02-15T11:10:06;15.50;99.90
2893;DHT22;1456;51.840;12.184;2024-02-15T11:12:33;15.40;99.90
2893;DHT22;1456;51.840;12.184;2024-02-15T11:14:59;15.30;99.90
2893;DHT22;1456;51.840;12.184;2024-02-15T11:20:09;15.30;99.90
2893;DHT22;1456;51.840;12.184;2024-02-15T11:22:39;15.20;99.90
2893;DHT22;1456;51.840;12.184;2024-02-15T11:25:08;15.40;99.90
2893;DHT22;1456;51.840;12.184;2024-02-15T11:27:40;15.50;99.90
2893;DHT22;1456;51.840;12.184;2024-02-15T11:30:06;15.70;99.90
2893;DHT22;1456;51.840;12.184;2024-02-15T11:32:48;15.90;99.90
2893;DHT22;1456;51.840;12.184;2024-02-15T11:35:16;16.00;99.90
2893;DHT22;1456;51.840;12.184;2024-02-15T11:40:25;16.20;99.90
2893;DHT22;1456;51.840;12.184;2024-02-15T11:42:53;16.30;99.90
2893;DHT22;1456;51.840;12.184;2024-02-15T11:45:20;16.20;99.90
2893;DHT22;1456;51.840;12.184;2024-02-15T11:47:51;16.20;99.90
2893;DHT22;1456;51.840;12.184;2024-02-15T11:50:18;16.10;99.90
2893;DHT22;1456;51.840;12.184;2024-02-15T11:52:45;16.10;99.90
2893;DHT22;1456;51.840;12.184;2024-02-15T11:55:13;16.10;99.90
2893;DHT22;1456;51.840;12.184;2024-02-15T11:58:02;16.00;99.90
2893;DHT22;1456;51.840;12.184;2024-02-15T12:00:31;15.90;99.90
2893;DHT22;1456;51.840;12.184;2024-02-15T12:03:17;16.00;99.90
2893;DHT22;1456;51.840;12.184;2024-02-15T12:06:02;16.20;99.90
2893;DHT22;1456;51.840;12.184;2024-02-15T12:08:47;16.20;99.90
2893;DHT22;1456;51.840;12.184;2024-02-15T12:11:36;16.30;99.90
2893;DHT22;1456;51.840;12.184;2024-02-15T12:14:20;16.40;99.90
2893;DHT22;1456;51.840;12.184;2024-02-15T12:17:06;16.40;99.90
2893;DHT22;1456;51.840;12.184;2024-02-15T12:19:53;16.60;99.90
2893;DHT22;1456;51.840;12.184;2024-02-15T12:22:25;17.00;99.90
2893;DHT22;1456;51.840;12.184;2024-02-15T12:24:59;17.30;99.90
2893;DHT22;1456;51.840;12.184;2024-02-15T12:27:31;17.90;99.90
2893;DHT22;1456;51.840;12.184;2024-02-15T12:29:58;18.30;99.90
2893;DHT22;1456;51.840;12.184;2024-02-15T12:32:25;18.50;99.90
2893;DHT22;1456;51.840;12.184;2024-02-15T12:35:09;18.60;99.90
2893;DHT22;1456;51.840;12.184;2024-02-15T12:37:35;18.90;99.90
2893;DHT22;1456;51.840;12.184;2024-02-15T12:40:16;19.00;99.90
2893;DHT22;1456;51.840;12.184;2024-02-15T12:42:46;18.90;99.90
2893;DHT22;1456;51.840;12.184;2024-02-15T12:45:19;18.80;99.90
2893;DHT22;1456;51.840;12.184;2024-02-15T12:47:55;18.40;99.90
2893;DHT22;1456;51.840;12.184;2024-02-15T12:50:31;18.00;99.90
2893;DHT22;1456;51.840;12.184;2024-02-15T12:52:57;17.60;99.90
2893;DHT22;1456;51.840;12.184;2024-02-15T12:55:35;17.20;99.90
2893;DHT22;1456;51.840;12.184;2024-02-15T12:58:03;16.70;99.90
2893;DHT22;1456;51.840;12.184;2024-02-15T13:00:30;16.60;99.90
2893;DHT22;1456;51.840;12.184;2024-02-15T13:03:03;16.70;99.90
2893;DHT22;1456;51.840;12.184;2024-02-15T13:05:29;16.70;99.90
2893;DHT22;1456;51.840;12.184;2024-02-15T13:07:56;16.80;99.90
2893;DHT22;1456;51.840;12.184;2024-02-15T13:10:28;16.80;99.90
2893;DHT22;1456;51.840;12.184;2024-02-15T13:12:55;16.70;99.90
2893;DHT22;1456;51.840;12.184;2024-02-15T13:15:22;16.60;99.90
2893;DHT22;1456;51.840;12.184;2024-02-15T13:17:55;16.30;99.90
2893;DHT22;1456;51.840;12.184;2024-02-15T13:20:25;16.20;99.90
2893;DHT22;1456;51.840;12.184;2024-02-15T13:23:08;16.20;99.90
2893;DHT22;1456;51.840;12.184;2024-02-15T13:25:35;16.40;99.90
2893;DHT22;1456;51.840;12.184;2024-02-15T13:28:08;16.20;99.90
2893;DHT22;1456;51.840;12.184;2024-02-15T13:30:36;16.10;99.90
2893;DHT22;1456;51.840;12.184;2024-02-15T13:33:02;16.20;99.90
2893;DHT22;1456;51.840;12.184;2024-02-15T13:35:28;16.30;99.90
2893;DHT22;1456;51.840;12.184;2024-02-15T13:37:54;16.30;99.90
2893;DHT22;1456;51.840;12.184;2024-02-15T13:40:24;16.30;99.90
2893;DHT22;1456;51.840;12.184;2024-02-15T13:42:53;16.20;99.90
2893;DHT22;1456;51.840;12.184;2024-02-15T13:45:23;16.00;99.90
2893;DHT22;1456;51.840;12.184;2024-02-15T13:47:50;16.00;99.90
2893;DHT22;1456;51.840;12.184;2024-02-15T13:50:16;16.00;99.90
2893;DHT22;1456;51.840;12.184;2024-02-15T13:52:43;16.10;99.90
2893;DHT22;1456;51.840;12.184;2024-02-15T13:55:19;16.00;99.90
2893;DHT22;1456;51.840;12.184;2024-02-15T13:57:46;16.00;99.90
2893;DHT22;1456;51.840;12.184;2024-02-15T14:00:16;16.10;99.90
2893;DHT22;1456;51.840;12.184;2024-02-15T14:02:52;16.30;99.90
2893;DHT22;1456;51.840;12.184;2024-02-15T14:05:22;16.30;99.90
2893;DHT22;1456;51.840;12.184;2024-02-15T14:07:56;16.20;99.90
2893;DHT22;1456;51.840;12.184;2024-02-15T14:10:22;16.40;99.90
2893;DHT22;1456;51.840;12.184;2024-02-15T14:12:50;16.50;99.90
2893;DHT22;1456;51.840;12.184;2024-02-15T14:15:29;16.40;99.90
2893;DHT22;1456;51.840;12.184;2024-02-15T14:17:55;16.20;99.90
2893;DHT22;1456;51.840;12.184;2024-02-15T14:20:22;16.10;99.90
2893;DHT22;1456;51.840;12.184;2024-02-15T14:22:49;16.20;99.90
2893;DHT22;1456;51.840;12.184;2024-02-15T14:25:15;16.30;99.90
2893;DHT22;1456;51.840;12.184;2024-02-15T14:27:41;16.40;99.90
2893;DHT22;1456;51.840;12.184;2024-02-15T14:30:08;16.50;99.90
2893;DHT22;1456;51.840;12.184;2024-02-15T14:32:53;16.50;99.90
2893;DHT22;1456;51.840;12.184;2024-02-15T14:35:33;16.50;99.90
2893;DHT22;1456;51.840;12.184;2024-02-15T14:38:09;16.60;99.90
2893;DHT22;1456;51.840;12.184;2024-02-15T14:40:37;16.80;99.90
2893;DHT22;1456;51.840;12.184;2024-02-15T14:43:04;17.10;99.90
2893;DHT22;1456;51.840;12.184;2024-02-15T14:45:31;17.40;99.90
2893;DHT22;1456;51.840;12.184;2024-02-15T14:47:58;17.70;99.90
2893;DHT22;1456;51.840;12.184;2024-02-15T14:50:24;17.80;99.90
2893;DHT22;1456;51.840;12.184;2024-02-15T14:52:51;17.80;99.90
2893;DHT22;1456;51.840;12.184;2024-02-15T14:55:17;17.70;99.90
2893;DHT22;1456;51.840;12.184;2024-02-15T14:57:44;17.60;99.90
2893;DHT22;1456;51.840;12.184;2024-02-15T15:00:11;17.50;99.90
2893;DHT22;1456;51.840;12.184;2024-02-15T15:02:40;17.20;99.90
2893;DHT22;1456;51.840;12.184;2024-02-15T15:05:08;16.80;99.90
2893;DHT22;1456;51.840;12.184;2024-02-15T15:07:52;16.60;99.90
2893;DHT22;1456;51.840;12.184;2024-02-15T15:10:37;16.40;99.90
2893;DHT22;1456;51.840;12.184;2024-02-15T15:13:21;16.20;99.90
2893;DHT22;1456;51.840;12.184;2024-02-15T15:15:48;16.20;99.90
2893;DHT22;1456;51.840;12.184;2024-02-15T15:18:14;16.10;99.90
2893;DHT22;1456;51.840;12.184;2024-02-15T15:20:40;16.20;99.90
2893;DHT22;1456;51.840;12.184;2024-02-15T15:23:05;16.30;99.90
2893;DHT22;1456;51.840;12.184;2024-02-15T15:25:33;16.20;99.90
2893;DHT22;1456;51.840;12.184;2024-02-15T15:27:59;16.10;99.90
2893;DHT22;1456;51.840;12.184;2024-02-15T15:30:26;16.00;99.90
2893;DHT22;1456;51.840;12.184;2024-02-15T15:32:51;16.00;99.90
2893;DHT22;1456;51.840;12.184;2024-02-15T15:35:18;15.90;99.90
2893;DHT22;1456;51.840;12.184;2024-02-15T15:37:44;15.80;99.90
2893;DHT22;1456;51.840;12.184;2024-02-15T15:40:12;15.70;99.90
2893;DHT22;1456;51.840;12.184;2024-02-15T15:42:41;15.60;99.90
2893;DHT22;1456;51.840;12.184;2024-02-15T15:45:07;15.60;99.90
2893;DHT22;1456;51.840;12.184;2024-02-15T15:47:34;15.60;99.90
2893;DHT22;1456;51.840;12.184;2024-02-15T15:50:00;15.60;99.90
2893;DHT22;1456;51.840;12.184;2024-02-15T15:52:25;15.60;99.90
2893;DHT22;1456;51.840;12.184;2024-02-15T15:54:51;15.60;99.90
2893;DHT22;1456;51.840;12.184;2024-02-15T15:57:17;15.50;99.90
2893;DHT22;1456;51.840;12.184;2024-02-15T15:59:44;15.40;99.90
2893;DHT22;1456;51.840;12.184;2024-02-15T16:02:10;15.30;99.90